Time;durP1;ratioP1;P1;durP2;ratioP2;P2;SDS_P1;SDS_P2;PMS_P1;PMS_P2;Temp;Humidity;BMP_temperature;BMP_pressure;BME280_temperature;BME280_humidity;BME280_pressure;Samples;Min_cycle;Max_cycle;Signal;HPM_P1;HPM_P2
2021/12/01 00:01:14;;;;;;;1.05;0.80;;;25.10;70.20;;;;;;5130911;23;20059;-57
2021/12/01 00:03:17;;;;;;;1.40;0.82;;;25.10;70.70;;;;;;5128538;23;20032;-60
2021/12/01 00:05:20;;;;;;;1.47;1.00;;;25.10;70.10;;;;;;5125709;22;20146;-60
2021/12/01 00:07:22;;;;;;;0.98;0.73;;;25.20;70.10;;;;;;5120301;22;20024;-61
2021/12/01 00:09:24;;;;;;;4.10;0.82;;;25.20;70.00;;;;;;5128212;22;20111;-60
2021/12/01 00:11:27;;;;;;;0.82;0.63;;;25.20;70.00;;;;;;5132706;22;20039;-57
2021/12/01 00:13:32;;;;;;;1.30;0.70;;;25.20;69.90;;;;;;5133600;22;20442;-57
2021/12/01 00:15:34;;;;;;;2.92;0.88;;;25.20;69.80;;;;;;5128155;22;20035;-57
2021/12/01 00:17:37;;;;;;;0.98;0.55;;;25.30;69.80;;;;;;5125947;22;20113;-57
2021/12/01 00:19:39;;;;;;;1.65;0.75;;;25.30;69.80;;;;;;5124074;22;20032;-58
2021/12/01 00:21:41;;;;;;;2.10;0.68;;;25.30;69.70;;;;;;5124471;23;20043;-59
2021/12/01 00:23:43;;;;;;;0.50;0.45;;;25.30;69.70;;;;;;5118223;23;20039;-59
2021/12/01 00:25:46;;;;;;;0.40;0.40;;;25.30;69.80;;;;;;5122870;23;20028;-59
2021/12/01 00:27:49;;;;;;;2.78;0.88;;;25.30;69.80;;;;;;5126765;22;20482;-59
2021/12/01 00:29:52;;;;;;;0.85;0.57;;;25.30;69.80;;;;;;5127334;22;20024;-57
2021/12/01 00:31:54;;;;;;;1.42;0.63;;;25.30;69.80;;;;;;5126225;23;20090;-57
2021/12/01 00:33:57;;;;;;;0.68;0.47;;;25.30;69.80;;;;;;5122904;23;20028;-59
2021/12/01 00:35:59;;;;;;;1.33;0.60;;;25.40;69.80;;;;;;5123568;22;20028;-59
2021/12/01 00:38:01;;;;;;;1.13;0.50;;;25.40;70.00;;;;;;5126740;23;20038;-59
2021/12/01 00:40:10;;;;;;;0.43;0.43;;;25.40;69.80;;;;;;5127113;23;20089;-58
2021/12/01 00:42:12;;;;;;;1.92;0.40;;;25.40;69.80;;;;;;5131338;23;20020;-59
2021/12/01 00:44:14;;;;;;;0.77;0.50;;;25.40;69.80;;;;;;5127823;23;20082;-59
2021/12/01 00:46:22;;;;;;;4.47;1.13;;;25.40;69.90;;;;;;5100678;23;20025;-59
2021/12/01 00:48:26;;;;;;;0.43;0.40;;;25.40;69.80;;;;;;5124516;23;20192;-58
2021/12/01 00:50:34;;;;;;;0.82;0.38;;;25.40;69.80;;;;;;5127885;23;20035;-58
2021/12/01 00:52:36;;;;;;;1.40;0.55;;;25.50;69.80;;;;;;5125146;23;20031;-59
2021/12/01 00:54:39;;;;;;;0.63;0.40;;;25.50;69.80;;;;;;5126422;23;20055;-58
2021/12/01 00:56:41;;;;;;;1.88;0.55;;;25.50;69.80;;;;;;5127246;22;20050;-59
2021/12/01 00:58:43;;;;;;;0.40;0.33;;;25.50;69.70;;;;;;5131040;22;20034;-59
2021/12/01 01:02:12;;;;;;;0.38;0.38;;;25.50;69.20;;;;;;4217598;27;20125;-59
2021/12/01 01:04:15;;;;;;;1.73;0.50;;;25.60;69.70;;;;;;4199071;28;20067;-59
2021/12/01 01:06:16;;;;;;;;;;;25.60;69.70;;;;;;4199221;28;20622;-58
2021/12/01 01:08:19;;;;;;;1.67;0.55;;;25.60;69.70;;;;;;4197103;28;19937;-60
2021/12/01 01:10:45;;;;;;;0.37;0.30;;;25.60;69.70;;;;;;4194411;28;20109;-60
2021/12/01 01:17:37;;;;;;;2.85;0.40;;;25.70;69.80;;;;;;4182029;28;20052;-61
2021/12/01 01:19:40;;;;;;;0.70;0.40;;;25.80;69.80;;;;;;4180347;28;20293;-60
2021/12/01 01:21:48;;;;;;;1.55;0.38;;;25.80;69.80;;;;;;4182409;28;20044;-61
2021/12/01 01:23:50;;;;;;;0.40;0.40;;;25.80;69.70;;;;;;4181773;28;20100;-60
2021/12/01 01:25:53;;;;;;;0.35;0.35;;;25.90;69.70;;;;;;4182440;28;20050;-59
2021/12/01 01:27:55;;;;;;;0.70;0.40;;;25.90;69.70;;;;;;4183802;28;20047;-62
2021/12/01 01:29:58;;;;;;;0.43;0.30;;;25.90;69.70;;;;;;4187972;28;20147;-59
2021/12/01 01:32:00;;;;;;;0.77;0.55;;;25.90;69.60;;;;;;4188160;28;20692;-60
2021/12/01 01:34:03;;;;;;;1.25;0.40;;;26.00;69.70;;;;;;4181002;28;22290;-60
2021/12/01 01:36:05;;;;;;;0.45;0.35;;;26.00;69.80;;;;;;4166055;28;20044;-61
2021/12/01 01:38:07;;;;;;;1.17;0.40;;;26.00;69.70;;;;;;4184943;28;20044;-61
2021/12/01 01:40:10;;;;;;;1.33;0.30;;;26.10;69.70;;;;;;4181801;28;20052;-61
2021/12/01 01:42:12;;;;;;;0.20;0.20;;;26.10;69.70;;;;;;4186366;28;20965;-60
2021/12/01 01:44:14;;;;;;;4.70;0.87;;;26.10;69.90;;;;;;4188209;28;20641;-62
2021/12/01 01:46:18;;;;;;;0.80;0.55;;;26.10;69.80;;;;;;4166436;28;20305;-62
2021/12/01 01:48:31;;;;;;;0.77;0.30;;;26.10;69.80;;;;;;4182172;28;20091;-60
2021/12/01 01:50:38;;;;;;;2.22;0.50;;;26.10;69.60;;;;;;4185401;28;20660;-60
2021/12/01 01:52:40;;;;;;;0.98;0.47;;;26.20;69.70;;;;;;4183483;28;21515;-61
2021/12/01 01:54:43;;;;;;;2.20;0.90;;;26.20;69.80;;;;;;4180663;28;20523;-57
2021/12/01 01:56:45;;;;;;;4.40;0.52;;;26.20;69.40;;;;;;4182424;28;20830;-50
2021/12/01 01:58:47;;;;;;;12.15;0.90;;;26.20;69.40;;;;;;4183198;28;20048;-59
2021/12/01 02:00:55;;;;;;;4.53;0.80;;;26.30;69.70;;;;;;4179726;28;21302;-57
2021/12/01 02:02:59;;;;;;;1.60;0.40;;;26.30;69.80;;;;;;4181486;28;20079;-59
2021/12/01 02:05:01;;;;;;;3.08;0.50;;;26.30;69.80;;;;;;4183797;28;20056;-57
2021/12/01 02:07:04;;;;;;;3.17;0.60;;;26.30;69.80;;;;;;4187108;28;20044;-59
2021/12/01 02:09:08;;;;;;;0.82;0.40;;;26.40;69.70;;;;;;4180707;28;20055;-58
2021/12/01 02:11:11;;;;;;;;;;;26.40;69.70;;;;;;4179856;28;21504;-59
2021/12/01 02:13:13;;;;;;;1.85;0.50;;;26.40;69.70;;;;;;4168883;28;19928;-57
2021/12/01 02:15:16;;;;;;;6.95;0.60;;;26.40;69.90;;;;;;4172119;28;20047;-57
2021/12/01 02:17:18;;;;;;;;;;;26.50;69.70;;;;;;4168507;28;20185;-59
2021/12/01 02:19:20;;;;;;;0.77;0.45;;;26.40;69.60;;;;;;4172847;28;20081;-59
2021/12/01 02:21:29;;;;;;;1.30;0.27;;;26.50;69.70;;;;;;4173204;28;20052;-58
2021/12/01 02:23:33;;;;;;;1.20;0.52;;;26.50;69.80;;;;;;4177670;28;20052;-58
2021/12/01 02:25:36;;;;;;;3.13;0.50;;;26.60;69.70;;;;;;4171512;28;20055;-57
2021/12/01 02:27:38;;;;;;;0.88;0.45;;;26.60;69.70;;;;;;4173029;28;20947;-58
2021/12/01 02:29:40;;;;;;;2.10;0.35;;;26.60;69.60;;;;;;4170381;28;20044;-58
2021/12/01 02:31:44;;;;;;;0.80;0.30;;;26.60;69.50;;;;;;4170636;28;20504;-59
2021/12/01 02:33:46;;;;;;;2.15;0.35;;;26.70;69.50;;;;;;4170018;28;20062;-56
2021/12/01 02:35:48;;;;;;;1.17;0.50;;;26.70;69.40;;;;;;4175906;28;20139;-57
2021/12/01 02:37:50;;;;;;;0.40;0.40;;;26.70;69.20;;;;;;4177634;28;20734;-56
2021/12/01 02:39:53;;;;;;;0.63;0.50;;;26.70;68.70;;;;;;4174984;28;20067;-58
2021/12/01 02:41:58;;;;;;;0.45;0.38;;;26.80;69.10;;;;;;4174000;28;20324;-58
2021/12/01 02:44:03;;;;;;;0.40;0.35;;;26.80;69.50;;;;;;4173377;28;20902;-58
2021/12/01 02:46:05;;;;;;;0.38;0.32;;;26.80;69.00;;;;;;4174062;28;20151;-56
2021/12/01 02:48:11;;;;;;;0.57;0.40;;;26.80;69.00;;;;;;4174875;28;20207;-57
2021/12/01 02:50:14;;;;;;;0.40;0.38;;;26.80;68.90;;;;;;4177475;28;20056;-58
2021/12/01 02:52:17;;;;;;;0.65;0.40;;;26.90;69.00;;;;;;4180281;28;20052;-58
2021/12/01 02:54:20;;;;;;;1.25;0.30;;;26.90;68.90;;;;;;4183117;28;20138;-57
2021/12/01 02:56:23;;;;;;;0.52;0.32;;;26.90;68.90;;;;;;4180239;28;20096;-59
2021/12/01 02:58:25;;;;;;;;;;;26.90;68.80;;;;;;4172915;28;20852;-57
2021/12/01 03:00:28;;;;;;;0.98;0.45;;;27.00;68.80;;;;;;4171920;28;20748;-55
2021/12/01 03:02:30;;;;;;;0.52;0.40;;;27.00;68.60;;;;;;4174171;28;20062;-58
2021/12/01 03:04:32;;;;;;;0.40;0.40;;;27.00;68.40;;;;;;4172345;28;20040;-56
2021/12/01 03:06:36;;;;;;;0.47;0.35;;;27.00;68.40;;;;;;4177202;28;20944;-57
2021/12/01 03:08:41;;;;;;;0.30;0.30;;;27.00;68.30;;;;;;4177533;28;20059;-58
2021/12/01 03:10:53;;;;;;;1.58;0.60;;;27.00;68.20;;;;;;4174635;28;20366;-55
2021/12/01 03:12:56;;;;;;;1.10;0.50;;;27.10;66.30;;;;;;4176861;28;20145;-56
2021/12/01 03:14:58;;;;;;;1.85;0.68;;;27.00;66.70;;;;;;4170315;28;20074;-56
2021/12/01 03:17:00;;;;;;;1.42;0.60;;;27.10;66.70;;;;;;4173669;28;21390;-56
2021/12/01 03:19:03;;;;;;;0.65;0.65;;;27.10;65.70;;;;;;4169676;28;20054;-58
2021/12/01 03:21:05;;;;;;;1.63;0.90;;;27.10;65.20;;;;;;4165963;28;20564;-58
2021/12/01 03:23:08;;;;;;;0.88;0.60;;;27.10;64.90;;;;;;4166431;28;20142;-57
2021/12/01 03:25:12;;;;;;;0.70;0.52;;;27.10;64.70;;;;;;4170122;28;20048;-53
2021/12/01 03:27:15;;;;;;;4.05;0.80;;;27.00;64.60;;;;;;4173134;28;20136;-58
2021/12/01 03:29:18;;;;;;;1.20;0.52;;;27.10;64.60;;;;;;4169596;28;20052;-47
2021/12/01 03:31:20;;;;;;;1.77;0.60;;;27.10;64.50;;;;;;4167860;28;21582;-50
2021/12/01 03:33:24;;;;;;;4.10;0.57;;;27.10;64.40;;;;;;4168592;28;20320;-48
2021/12/01 03:35:26;;;;;;;2.25;0.80;;;27.10;64.30;;;;;;4167818;28;20657;-47
2021/12/01 03:37:28;;;;;;;1.85;0.57;;;27.10;64.50;;;;;;4169386;28;20060;-44
2021/12/01 03:39:31;;;;;;;0.70;0.60;;;27.10;64.60;;;;;;4171280;28;20048;-52
2021/12/01 03:41:34;;;;;;;0.55;0.40;;;27.10;64.70;;;;;;4170582;28;20063;-50
2021/12/01 03:43:36;;;;;;;2.13;0.82;;;27.10;64.70;;;;;;4166845;28;20040;-50
2021/12/01 03:45:39;;;;;;;0.98;0.50;;;27.10;64.70;;;;;;4165811;28;22199;-45
2021/12/01 03:47:42;;;;;;;1.20;0.40;;;27.10;64.70;;;;;;4166439;28;20060;-47
2021/12/01 03:49:44;;;;;;;;;;;27.20;64.70;;;;;;4164184;28;20139;-49
2021/12/01 03:51:46;;;;;;;0.77;0.57;;;27.20;64.80;;;;;;4164651;28;20019;-48
2021/12/01 03:53:49;;;;;;;0.35;0.35;;;27.10;64.70;;;;;;4171065;28;20048;-46
2021/12/01 03:55:52;;;;;;;0.63;0.40;;;27.20;64.70;;;;;;4170962;28;20171;-52
2021/12/01 03:57:54;;;;;;;0.65;0.30;;;27.20;65.20;;;;;;4166883;28;20063;-46
2021/12/01 03:59:56;;;;;;;0.80;0.43;;;27.20;64.50;;;;;;4167181;28;20071;-47
2021/12/01 04:02:12;;;;;;;1.38;0.40;;;27.20;63.90;;;;;;4182852;27;20443;-45
2021/12/01 04:04:14;;;;;;;1.33;0.30;;;27.30;64.50;;;;;;4182213;28;21986;-44
2021/12/01 04:06:16;;;;;;;0.40;0.30;;;27.30;64.20;;;;;;4178655;28;20201;-47
2021/12/01 04:08:18;;;;;;;1.02;0.50;;;27.40;64.20;;;;;;4183536;28;21261;-47
2021/12/01 04:10:21;;;;;;;0.40;0.40;;;27.40;64.20;;;;;;4181952;28;20063;-47
2021/12/01 04:12:23;;;;;;;0.30;0.30;;;27.40;64.10;;;;;;4186331;28;20056;-49
2021/12/01 04:14:26;;;;;;;0.35;0.28;;;27.40;64.00;;;;;;4188986;28;20079;-52
2021/12/01 04:16:28;;;;;;;0.63;0.20;;;27.50;64.10;;;;;;4181801;28;20145;-50
2021/12/01 04:18:30;;;;;;;0.30;0.30;;;27.50;64.10;;;;;;4180860;28;20066;-48
2021/12/01 04:20:32;;;;;;;0.55;0.32;;;27.50;63.90;;;;;;4183622;28;20067;-48
2021/12/01 04:22:36;;;;;;;0.77;0.40;;;27.50;63.80;;;;;;4180733;28;20507;-48
2021/12/01 04:24:38;;;;;;;0.30;0.30;;;27.50;63.70;;;;;;4182980;28;20056;-49
2021/12/01 04:26:41;;;;;;;0.68;0.40;;;27.50;63.60;;;;;;4186697;28;20138;-46
2021/12/01 04:28:43;;;;;;;0.35;0.25;;;27.60;63.50;;;;;;4186782;28;20406;-50
2021/12/01 04:30:45;;;;;;;0.40;0.40;;;27.60;63.40;;;;;;4181492;28;20174;-49
2021/12/01 04:32:48;;;;;;;0.55;0.40;;;27.60;63.40;;;;;;4183640;28;20099;-48
2021/12/01 04:34:50;;;;;;;0.70;0.32;;;27.70;63.30;;;;;;4183199;28;20227;-49
2021/12/01 04:36:52;;;;;;;0.30;0.30;;;27.70;63.20;;;;;;4180309;28;20090;-49
2021/12/01 04:38:55;;;;;;;0.35;0.35;;;27.70;63.10;;;;;;4185065;28;20043;-48
2021/12/01 04:40:57;;;;;;;0.30;0.23;;;27.80;63.10;;;;;;4189443;28;20151;-49
2021/12/01 04:43:00;;;;;;;0.40;0.40;;;27.80;63.10;;;;;;4183776;28;20122;-50
2021/12/01 04:45:02;;;;;;;;;;;27.80;62.90;;;;;;4179325;28;20047;-48
2021/12/01 04:47:10;;;;;;;0.28;0.28;;;27.90;63.00;;;;;;4162459;28;19935;-45
2021/12/01 04:49:18;;;;;;;0.30;0.30;;;27.90;62.90;;;;;;4181953;28;20081;-46
2021/12/01 04:51:20;;;;;;;0.30;0.30;;;27.90;62.80;;;;;;4181783;28;20052;-45
2021/12/01 04:53:24;;;;;;;0.30;0.30;;;28.00;62.80;;;;;;4180198;28;20451;-47
2021/12/01 04:55:27;;;;;;;0.20;0.20;;;28.00;62.60;;;;;;4180899;28;20134;-50
2021/12/01 04:57:29;;;;;;;0.35;0.35;;;28.00;62.60;;;;;;4178061;28;20070;-48
2021/12/01 04:59:32;;;;;;;0.50;0.40;;;28.10;62.50;;;;;;4186106;28;20306;-45
2021/12/01 05:01:34;;;;;;;;;;;28.10;62.50;;;;;;4184745;28;20075;-46
2021/12/01 05:03:36;;;;;;;0.25;0.20;;;28.20;62.50;;;;;;4182097;28;20030;-47
2021/12/01 05:05:39;;;;;;;0.50;0.50;;;28.20;62.20;;;;;;4181673;28;20075;-46
2021/12/01 05:07:41;;;;;;;0.32;0.32;;;28.30;62.30;;;;;;4179583;28;20059;-50
2021/12/01 05:09:43;;;;;;;0.53;0.23;;;28.30;62.20;;;;;;4182430;28;20791;-50
2021/12/01 05:11:45;;;;;;;0.30;0.30;;;28.40;62.00;;;;;;4185018;28;20684;-48
2021/12/01 05:13:48;;;;;;;0.20;0.20;;;28.40;61.90;;;;;;4173378;28;20454;-47
2021/12/01 05:15:52;;;;;;;0.20;0.20;;;28.50;61.80;;;;;;4169926;28;20963;-48
2021/12/01 05:17:54;;;;;;;0.30;0.30;;;28.50;61.70;;;;;;4168628;28;20058;-44
2021/12/01 05:19:56;;;;;;;0.40;0.40;;;28.60;61.70;;;;;;4169093;28;20070;-48
2021/12/01 05:21:58;;;;;;;0.30;0.30;;;28.60;61.50;;;;;;4168773;28;20052;-46
2021/12/01 05:24:01;;;;;;;1.08;0.40;;;28.70;61.50;;;;;;4172912;28;20052;-46
2021/12/01 05:26:02;;;;;;;;;;;28.70;61.40;;;;;;4174487;28;20052;-48
2021/12/01 05:28:04;;;;;;;0.30;0.30;;;28.80;61.50;;;;;;4172534;28;20075;-49
2021/12/01 05:30:07;;;;;;;0.20;0.20;;;28.90;61.40;;;;;;4164333;28;20166;-46
2021/12/01 05:32:09;;;;;;;0.52;0.40;;;28.90;61.30;;;;;;4170235;28;20048;-50
2021/12/01 05:34:11;;;;;;;0.23;0.20;;;29.00;61.20;;;;;;4170622;28;20048;-51
2021/12/01 05:36:13;;;;;;;0.30;0.30;;;29.00;61.20;;;;;;4167129;28;20097;-50
2021/12/01 05:38:16;;;;;;;0.20;0.20;;;29.00;61.10;;;;;;4175544;28;20468;-48
2021/12/01 05:40:18;;;;;;;0.20;0.20;;;29.10;61.00;;;;;;4174000;28;20044;-51
2021/12/01 05:42:21;;;;;;;0.52;0.32;;;29.20;61.00;;;;;;4170411;28;20071;-46
2021/12/01 05:44:23;;;;;;;0.20;0.20;;;29.20;60.90;;;;;;4167387;28;20122;-46
2021/12/01 05:46:27;;;;;;;0.23;0.23;;;29.30;60.90;;;;;;4168443;28;20044;-47
2021/12/01 05:48:29;;;;;;;0.20;0.20;;;29.30;60.70;;;;;;4166872;28;20049;-50
2021/12/01 05:50:31;;;;;;;0.20;0.20;;;29.40;60.90;;;;;;4168968;28;20036;-51
2021/12/01 05:52:33;;;;;;;0.17;0.17;;;29.40;60.80;;;;;;4175190;28;20048;-48
2021/12/01 05:54:36;;;;;;;0.20;0.20;;;29.50;60.50;;;;;;4169928;28;20315;-48
2021/12/01 05:56:38;;;;;;;0.15;0.15;;;29.60;60.50;;;;;;4169582;28;21550;-53
2021/12/01 05:58:40;;;;;;;0.60;0.30;;;29.60;60.40;;;;;;4166027;28;20054;-46
2021/12/01 06:00:42;;;;;;;8.27;1.03;;;29.70;60.40;;;;;;4168546;28;20147;-46
2021/12/01 06:02:48;;;;;;;1.35;0.32;;;29.70;60.30;;;;;;4169101;28;20652;-47
2021/12/01 06:04:50;;;;;;;1.23;0.40;;;29.70;60.60;;;;;;4170465;28;20531;-50
2021/12/01 06:06:52;;;;;;;2.40;0.35;;;29.70;61.40;;;;;;4175314;28;20563;-48
2021/12/01 06:08:56;;;;;;;0.70;0.47;;;29.60;61.60;;;;;;4172783;28;20067;-46
2021/12/01 06:10:58;;;;;;;1.40;0.25;;;29.60;62.00;;;;;;4167329;28;22138;-50
2021/12/01 06:13:00;;;;;;;0.55;0.30;;;29.60;62.20;;;;;;4168081;28;20564;-45
2021/12/01 06:15:03;;;;;;;1.33;0.30;;;29.60;62.30;;;;;;4169465;28;20071;-49
2021/12/01 06:17:05;;;;;;;0.65;0.20;;;29.60;62.60;;;;;;4168549;28;20044;-47
2021/12/01 06:19:07;;;;;;;1.10;0.67;;;29.60;62.80;;;;;;4170995;28;20139;-43
2021/12/01 06:21:09;;;;;;;2.77;0.60;;;29.50;62.10;;;;;;4175459;28;20398;-50
2021/12/01 06:23:12;;;;;;;0.53;0.53;;;29.50;60.70;;;;;;4166201;28;20855;-50
2021/12/01 06:25:14;;;;;;;1.10;0.57;;;29.40;59.80;;;;;;4167456;28;20070;-47
2021/12/01 06:27:16;;;;;;;0.60;0.52;;;29.30;59.30;;;;;;4168238;28;20055;-50
2021/12/01 06:29:18;;;;;;;1.45;0.70;;;29.30;58.90;;;;;;4169911;28;20058;-49
2021/12/01 06:31:20;;;;;;;0.60;0.50;;;29.20;58.50;;;;;;4173296;28;20506;-52
2021/12/01 06:33:22;;;;;;;0.52;0.50;;;29.30;58.50;;;;;;4176061;28;20059;-50
2021/12/01 06:35:25;;;;;;;1.85;0.57;;;29.20;58.30;;;;;;4168317;28;20133;-50
2021/12/01 06:37:27;;;;;;;0.45;0.40;;;29.30;58.10;;;;;;4171828;28;20059;-52
2021/12/01 06:39:29;;;;;;;0.77;0.50;;;29.20;57.60;;;;;;4169564;28;20050;-49
2021/12/01 06:41:31;;;;;;;0.67;0.53;;;29.20;57.20;;;;;;4171985;28;20071;-50
2021/12/01 06:43:33;;;;;;;0.88;0.63;;;29.10;57.00;;;;;;4166947;28;20307;-52
2021/12/01 06:45:36;;;;;;;0.63;0.40;;;29.10;57.00;;;;;;4176350;28;20067;-48
2021/12/01 06:47:39;;;;;;;0.50;0.50;;;29.00;57.50;;;;;;4171430;28;20052;-49
2021/12/01 06:49:45;;;;;;;1.00;0.60;;;29.00;57.80;;;;;;4170569;28;20052;-50
2021/12/01 06:51:47;;;;;;;2.08;0.60;;;29.00;58.00;;;;;;4171684;28;20079;-49
2021/12/01 06:53:50;;;;;;;1.23;0.73;;;28.90;58.00;;;;;;4173580;28;20067;-47
2021/12/01 06:55:52;;;;;;;0.85;0.60;;;28.90;58.00;;;;;;4172035;28;20072;-49
2021/12/01 06:57:55;;;;;;;2.35;0.85;;;28.90;57.70;;;;;;4175407;28;20781;-50
2021/12/01 06:59:57;;;;;;;0.87;0.60;;;28.80;57.50;;;;;;4179491;28;20112;-50
2021/12/01 07:01:59;;;;;;;0.90;0.60;;;28.80;57.50;;;;;;4182180;28;20541;-48
2021/12/01 07:04:02;;;;;;;1.58;0.80;;;28.80;57.90;;;;;;4175253;28;20067;-45
2021/12/01 07:06:04;;;;;;;1.43;0.77;;;28.70;57.40;;;;;;4175911;28;20052;-46
2021/12/01 07:08:06;;;;;;;1.20;0.80;;;28.70;57.60;;;;;;4172777;28;21007;-51
2021/12/01 07:10:10;;;;;;;1.58;0.77;;;28.70;57.90;;;;;;4171980;28;20129;-45
2021/12/01 07:12:13;;;;;;;0.77;0.52;;;28.70;57.90;;;;;;4174771;28;21030;-49
2021/12/01 07:14:15;;;;;;;1.10;0.82;;;28.60;58.00;;;;;;4178632;28;20116;-49
2021/12/01 07:16:18;;;;;;;1.63;0.80;;;28.60;58.20;;;;;;4173198;28;21728;-51
2021/12/01 07:18:20;;;;;;;2.15;0.70;;;28.60;58.30;;;;;;4168643;28;20320;-50
2021/12/01 07:20:22;;;;;;;0.88;0.52;;;28.60;58.30;;;;;;4168394;28;20127;-51
2021/12/01 07:22:24;;;;;;;0.60;0.60;;;28.60;58.90;;;;;;4172539;28;20104;-50
2021/12/01 07:24:29;;;;;;;1.58;0.80;;;28.60;58.50;;;;;;4167987;28;20048;-49
2021/12/01 07:26:31;;;;;;;0.80;0.68;;;28.50;58.50;;;;;;4175342;28;20059;-49
2021/12/01 07:28:34;;;;;;;0.50;0.47;;;28.50;58.40;;;;;;4160696;28;20119;-48
2021/12/01 07:30:39;;;;;;;1.15;0.77;;;28.50;58.30;;;;;;4171536;28;20055;-46
2021/12/01 07:32:41;;;;;;;0.40;0.40;;;28.50;58.30;;;;;;4169090;28;20080;-50
2021/12/01 07:34:44;;;;;;;1.20;0.57;;;28.50;58.50;;;;;;4170056;28;20055;-46
2021/12/01 07:36:46;;;;;;;0.63;0.50;;;28.40;58.50;;;;;;4168555;28;20060;-47
2021/12/01 07:38:50;;;;;;;1.58;0.50;;;28.40;58.70;;;;;;4166257;28;20155;-47
2021/12/01 07:40:53;;;;;;;0.60;0.50;;;28.40;58.70;;;;;;4168398;28;20064;-47
2021/12/01 07:42:55;;;;;;;1.20;0.77;;;28.40;58.90;;;;;;4174271;28;20048;-46
2021/12/01 07:44:57;;;;;;;0.90;0.60;;;28.40;59.00;;;;;;4169710;28;20589;-48
2021/12/01 07:46:59;;;;;;;0.57;0.55;;;28.40;59.10;;;;;;4171424;28;20106;-52
2021/12/01 07:49:01;;;;;;;0.70;0.50;;;28.40;59.10;;;;;;4168091;28;20793;-52
2021/12/01 07:51:05;;;;;;;1.33;0.65;;;28.30;59.10;;;;;;4168297;28;20116;-51
2021/12/01 07:53:09;;;;;;;1.10;0.57;;;28.30;59.30;;;;;;4165389;28;20060;-51
2021/12/01 07:55:11;;;;;;;0.50;0.50;;;28.30;59.40;;;;;;4165049;28;20142;-48
2021/12/01 07:57:15;;;;;;;0.60;0.53;;;28.30;59.60;;;;;;4171045;28;20779;-53
2021/12/01 07:59:17;;;;;;;0.98;0.50;;;28.30;59.50;;;;;;4152129;28;20301;-49
2021/12/01 08:01:19;;;;;;;1.60;1.03;;;28.30;59.70;;;;;;4165780;28;20061;-49
2021/12/01 08:03:22;;;;;;;1.17;0.70;;;28.20;59.60;;;;;;4163804;28;20071;-47
2021/12/01 08:05:24;;;;;;;0.65;0.60;;;28.20;59.70;;;;;;4169132;28;20075;-44
2021/12/01 08:07:28;;;;;;;3.15;0.60;;;28.20;59.90;;;;;;4166186;28;20281;-47
2021/12/01 08:09:30;;;;;;;1.88;0.52;;;28.20;60.40;;;;;;4168082;28;20880;-48
2021/12/01 08:11:33;;;;;;;0.57;0.40;;;28.20;60.70;;;;;;4173546;28;20056;-45
2021/12/01 08:13:35;;;;;;;1.02;0.60;;;28.20;61.10;;;;;;4165630;28;20059;-46
2021/12/01 08:15:38;;;;;;;1.50;0.50;;;28.20;61.10;;;;;;4166923;28;21867;-46
2021/12/01 08:17:40;;;;;;;0.40;0.40;;;28.30;61.50;;;;;;4168040;28;20048;-45
2021/12/01 08:19:42;;;;;;;1.00;0.50;;;28.30;61.60;;;;;;4165327;28;20771;-48
2021/12/01 08:21:49;;;;;;;0.50;0.50;;;28.30;61.80;;;;;;4166927;28;20106;-49
2021/12/01 08:23:52;;;;;;;0.32;0.32;;;28.30;61.80;;;;;;4168718;28;20110;-49
2021/12/01 08:25:55;;;;;;;0.65;0.45;;;28.30;61.80;;;;;;4172123;28;20142;-46
2021/12/01 08:28:00;;;;;;;0.60;0.40;;;28.30;61.80;;;;;;4168646;28;20609;-46
2021/12/01 08:30:02;;;;;;;0.25;0.25;;;28.30;61.80;;;;;;4167780;28;20304;-46
2021/12/01 08:32:05;;;;;;;1.17;0.50;;;28.30;62.00;;;;;;4165720;28;20054;-45
2021/12/01 08:34:08;;;;;;;0.55;0.47;;;28.30;62.00;;;;;;4167971;28;20760;-49
2021/12/01 08:36:11;;;;;;;0.40;0.40;;;28.40;61.50;;;;;;4168288;28;20048;-46
2021/12/01 08:38:13;;;;;;;1.25;0.43;;;28.40;62.10;;;;;;4168270;28;20509;-48
2021/12/01 08:40:16;;;;;;;1.70;0.43;;;28.40;62.10;;;;;;4170739;28;21428;-52
2021/12/01 08:42:20;;;;;;;0.90;0.30;;;28.40;62.10;;;;;;4173365;28;20800;-50
2021/12/01 08:44:22;;;;;;;0.52;0.40;;;28.40;62.20;;;;;;4169086;28;20280;-46
2021/12/01 08:46:24;;;;;;;1.08;0.38;;;28.40;62.20;;;;;;4166547;28;20063;-45
2021/12/01 08:48:26;;;;;;;2.22;0.40;;;28.40;62.30;;;;;;4169293;28;20071;-45
2021/12/01 08:50:28;;;;;;;0.52;0.40;;;28.40;62.30;;;;;;4169735;28;20186;-48
2021/12/01 08:52:30;;;;;;;0.55;0.32;;;28.40;62.40;;;;;;4171993;28;20051;-47
2021/12/01 08:54:32;;;;;;;0.33;0.27;;;28.40;62.40;;;;;;4176816;28;20044;-49
2021/12/01 08:56:35;;;;;;;0.63;0.52;;;28.40;62.50;;;;;;4154652;28;20064;-51
2021/12/01 08:58:37;;;;;;;1.03;0.30;;;28.40;62.50;;;;;;4170407;28;20146;-45
2021/12/01 09:00:48;;;;;;;1.70;0.40;;;28.40;62.70;;;;;;4168978;28;20140;-48
2021/12/01 09:02:50;;;;;;;4.53;0.30;;;28.40;62.70;;;;;;4170394;28;20052;-53
2021/12/01 09:04:52;;;;;;;0.30;0.30;;;28.40;62.80;;;;;;4166179;28;20070;-46
2021/12/01 09:06:55;;;;;;;0.73;0.40;;;28.40;62.80;;;;;;4163334;28;20052;-46
2021/12/01 09:08:57;;;;;;;0.47;0.38;;;28.40;62.90;;;;;;4167070;28;20300;-47
2021/12/01 09:11:03;;;;;;;0.32;0.30;;;28.40;62.60;;;;;;4169331;28;20070;-50
2021/12/01 09:13:06;;;;;;;1.13;0.50;;;28.40;62.40;;;;;;4170022;28;20112;-52
2021/12/01 09:15:09;;;;;;;0.75;0.40;;;28.40;62.20;;;;;;4166191;28;20179;-55
2021/12/01 09:17:12;;;;;;;0.82;0.28;;;28.40;62.20;;;;;;4166971;28;20070;-58
2021/12/01 09:19:14;;;;;;;;;;;28.30;62.20;;;;;;4164081;28;20179;-60
2021/12/01 09:21:18;;;;;;;1.98;0.65;;;28.30;61.60;;;;;;4166725;28;19928;-51
2021/12/01 09:23:20;;;;;;;0.60;0.40;;;28.30;61.00;;;;;;4166917;28;20044;-56
2021/12/01 09:25:23;;;;;;;0.57;0.57;;;28.30;60.60;;;;;;4167802;28;20062;-59
2021/12/01 09:27:25;;;;;;;0.63;0.60;;;28.30;60.30;;;;;;4173861;28;20056;-56
2021/12/01 09:29:29;;;;;;;1.80;0.70;;;28.20;60.10;;;;;;4167502;28;20055;-59
2021/12/01 09:31:31;;;;;;;2.28;0.80;;;28.20;60.00;;;;;;4166056;28;21739;-52
2021/12/01 09:33:33;;;;;;;0.70;0.65;;;28.20;59.90;;;;;;4165045;28;20138;-54
2021/12/01 09:35:36;;;;;;;0.95;0.47;;;28.10;59.90;;;;;;4167481;28;21209;-50
2021/12/01 09:37:38;;;;;;;1.13;0.55;;;28.10;60.20;;;;;;4162949;28;20097;-56
2021/12/01 09:39:40;;;;;;;0.57;0.50;;;28.10;60.90;;;;;;4167898;28;20056;-54
2021/12/01 09:41:43;;;;;;;2.37;0.90;;;28.10;61.30;;;;;;4167133;28;20713;-53
2021/12/01 09:43:45;;;;;;;0.90;0.70;;;28.20;61.70;;;;;;4160833;28;20055;-59
2021/12/01 09:45:48;;;;;;;1.05;0.70;;;28.10;61.60;;;;;;4164265;28;20060;-48
2021/12/01 09:47:54;;;;;;;1.25;0.63;;;28.10;61.30;;;;;;4162174;28;20728;-61
2021/12/01 09:49:57;;;;;;;1.02;0.60;;;28.20;61.30;;;;;;4161349;28;20126;-53
2021/12/01 09:51:59;;;;;;;0.80;0.60;;;28.20;61.20;;;;;;4048933;28;20243;-57
2021/12/01 09:54:02;;;;;;;1.57;0.77;;;28.10;61.70;;;;;;4133066;28;20450;-56
2021/12/01 09:56:04;;;;;;;1.00;0.60;;;28.10;62.30;;;;;;4134891;28;20084;-57
2021/12/01 09:58:19;;;;;;;1.08;0.70;;;28.20;63.10;;;;;;4130419;28;20991;-56
2021/12/01 10:21:21;;;;;;;0.40;0.40;;;28.40;63.40;;;;;;5127005;22;2439053;-56
2021/12/01 10:23:24;;;;;;;0.57;0.43;;;28.40;63.60;;;;;;5205414;22;20060;-55
2021/12/01 10:25:33;;;;;;;0.55;0.50;;;28.40;63.70;;;;;;5208036;22;20474;-53
2021/12/01 10:27:38;;;;;;;1.58;0.50;;;28.50;63.70;;;;;;5208458;22;20027;-53
2021/12/01 10:29:50;;;;;;;0.45;0.30;;;28.40;63.70;;;;;;5181049;22;20031;-56
2021/12/01 10:31:56;;;;;;;1.65;0.38;;;28.50;63.60;;;;;;5206695;22;20954;-52
2021/12/01 10:34:13;;;;;;;0.30;0.20;;;28.50;63.50;;;;;;5208293;22;21046;-57
2021/12/01 10:36:15;;;;;;;0.30;0.30;;;28.50;63.60;;;;;;5206204;22;21107;-54
2021/12/01 10:38:29;;;;;;;0.35;0.32;;;28.50;63.60;;;;;;5206360;22;20030;-56
2021/12/01 10:40:31;;;;;;;1.35;0.40;;;28.50;63.70;;;;;;5206938;22;21063;-55
2021/12/01 10:42:33;;;;;;;0.30;0.30;;;28.50;63.70;;;;;;5207677;22;20350;-57
2021/12/01 10:44:36;;;;;;;0.20;0.20;;;28.50;63.80;;;;;;5207043;22;20019;-58
2021/12/01 10:46:51;;;;;;;;;;;28.50;63.90;;;;;;5209098;22;20030;-55
2021/12/01 10:49:06;;;;;;;0.40;0.40;;;28.50;63.90;;;;;;5180883;22;19965;-56
2021/12/01 10:51:31;;;;;;;0.38;0.30;;;28.50;64.00;;;;;;5208013;22;20227;-57
2021/12/01 10:53:33;;;;;;;0.20;0.20;;;28.50;64.00;;;;;;5214018;22;20085;-58
2021/12/01 10:55:43;;;;;;;0.20;0.20;;;28.50;63.90;;;;;;5212517;22;20138;-58
2021/12/01 10:57:55;;;;;;;0.47;0.30;;;28.50;64.00;;;;;;5210673;22;20438;-57
2021/12/01 10:59:58;;;;;;;2.70;0.40;;;28.50;64.00;;;;;;5214748;22;20105;-54
2021/12/01 11:02:15;;;;;;;2.00;0.63;;;28.50;64.20;;;;;;5214536;22;20031;-56
2021/12/01 11:04:36;;;;;;;5.32;0.47;;;28.50;64.10;;;;;;5215417;22;20476;-54
2021/12/01 11:06:41;;;;;;;1.38;0.30;;;28.60;64.10;;;;;;5220666;22;20022;-55
2021/12/01 11:08:45;;;;;;;3.80;0.55;;;28.50;64.10;;;;;;5219391;22;20383;-48
2021/12/01 11:11:04;;;;;;;1.17;0.55;;;28.50;64.20;;;;;;5202115;22;20018;-50
2021/12/01 11:13:07;;;;;;;0.85;0.40;;;28.60;64.30;;;;;;5189768;22;20046;-49